MMLM

Valle del Fuerte International Airport

Airport
ICAO code
MMLM
IATA Code
LMM
Summary
ICAO Region
CARSAM
ICAO Territory
Location

Plan de Guadalupe, Sinaloa

Serving
Los Mochis
Elevation
16 ft
Coordinates
25° 41' 7" N , 109° 4' 51" W
KCC
Metar
MMLM 222341Z 22011KT 10SM SKC 31/19 A2983 RMK SLP102

Valle del Fuerte Federal International Airport or commonly named Los Mochis International Airport is the airport serving Los Mochis, Sinaloa, Mexico.

Climatology

Hot Desert Climate (Köppen climate classification BWh)

Runways

Designator Length Width Surface Rops
9/27 2000 45 ASP Yes/Yes

Airport map

Aerial View

SKYbrary Partners:

Safety knowledge contributed by: